Time;durP1;ratioP1;P1;durP2;ratioP2;P2;SDS_P1;SDS_P2;PMS_P1;PMS_P2;Temp;Humidity;BMP_temperature;BMP_pressure;BME280_temperature;BME280_humidity;BME280_pressure;Samples;Min_cycle;Max_cycle;Signal;HPM_P1;HPM_P2
2022/08/29 00:00:41;;;;;;;5.20;2.35;;;;;;;16.98;100.00;102178.41;4943112;28;20068;-79
2022/08/29 00:03:11;;;;;;;6.25;3.05;;;;;;;16.98;100.00;102178.41;5004617;28;20061;-80
2022/08/29 00:05:40;;;;;;;6.18;2.20;;;;;;;16.98;100.00;102170.41;4988581;28;20049;-79
2022/08/29 00:08:11;;;;;;;6.82;2.17;;;;;;;16.99;100.00;102176.63;4985243;28;20500;-78
2022/08/29 00:10:42;;;;;;;5.63;1.85;;;;;;;16.98;100.00;102166.88;4982418;28;20057;-78
2022/08/29 00:13:12;;;;;;;5.35;2.67;;;;;;;16.98;100.00;102173.06;4986710;28;20046;-80
2022/08/29 00:15:41;;;;;;;5.68;2.15;;;;;;;16.99;100.00;102171.28;4975664;28;20046;-78
2022/08/29 00:18:14;;;;;;;5.72;1.65;;;;;;;16.95;100.00;102160.63;4986830;28;20038;-78
2022/08/29 00:20:44;;;;;;;5.53;1.80;;;;;;;16.93;100.00;102166.88;4990532;28;20054;-79
2022/08/29 00:23:12;;;;;;;4.97;1.67;;;;;;;16.92;100.00;102171.31;4965987;28;20530;-79
2022/08/29 00:25:41;;;;;;;5.43;1.67;;;;;;;16.91;100.00;102166.88;4987292;28;20277;-79
2022/08/29 00:28:10;;;;;;;2.45;1.10;;;;;;;16.90;100.00;102164.19;4981629;28;20042;-80
2022/08/29 00:30:40;;;;;;;3.95;1.60;;;;;;;16.88;100.00;102169.56;4943106;28;20041;-80
2022/08/29 00:33:08;;;;;;;4.00;1.70;;;;;;;16.89;100.00;102163.31;5005819;28;20499;-78
2022/08/29 00:35:40;;;;;;;3.22;1.40;;;;;;;16.91;100.00;102160.66;4988515;28;20519;-78
2022/08/29 00:38:11;;;;;;;4.45;1.70;;;;;;;16.91;100.00;102169.53;4985977;28;20518;-78
2022/08/29 00:40:48;;;;;;;6.28;1.88;;;;;;;16.92;100.00;102165.09;5005392;28;20499;-79
2022/08/29 00:43:23;;;;;;;5.40;1.55;;;;;;;16.92;100.00;102168.66;4968097;28;20526;-80
2022/08/29 00:46:18;;;;;;;4.80;1.70;;;;;;;16.91;100.00;102163.31;4988212;28;20033;-79
2022/08/29 00:48:54;;;;;;;6.65;1.77;;;;;;;16.89;100.00;102157.13;4985869;28;20061;-78
2022/08/29 00:51:24;;;;;;;7.70;1.80;;;;;;;16.88;100.00;102155.31;4973063;28;20172;-79
2022/08/29 00:53:58;;;;;;;8.10;1.95;;;;;;;16.87;100.00;102156.25;4962552;28;20672;-78
2022/08/29 00:56:28;;;;;;;5.00;1.85;;;;;;;16.86;100.00;102166.00;4960585;28;20275;-79
2022/08/29 00:59:05;;;;;;;6.10;1.95;;;;;;;16.86;100.00;102163.34;4983305;28;20041;-79
2022/08/29 01:01:34;;;;;;;5.10;2.00;;;;;;;16.85;100.00;102155.34;4953701;28;20567;-78
2022/08/29 01:04:09;;;;;;;7.32;2.42;;;;;;;16.83;100.00;102154.47;5002304;28;20483;-79
2022/08/29 01:06:50;;;;;;;;;;;;;;;16.81;100.00;102156.22;4988418;28;20053;-78
2022/08/29 01:09:19;;;;;;;5.85;1.75;;;;;;;16.78;100.00;102154.44;5002448;28;19921;-79
2022/08/29 01:14:36;;;;;;;9.32;1.70;;;;;;;16.75;100.00;102159.78;4979918;28;20354;-79
2022/08/29 01:17:08;;;;;;;6.53;1.75;;;;;;;16.74;100.00;102163.31;4956703;28;20056;-79
2022/08/29 01:19:48;;;;;;;7.93;2.30;;;;;;;16.72;100.00;102158.00;5004131;28;20258;-79
2022/08/29 01:22:37;;;;;;;7.72;2.03;;;;;;;16.72;100.00;102159.78;5000102;28;20056;-79
2022/08/29 01:25:11;;;;;;;6.45;1.88;;;;;;;16.71;100.00;102158.91;4984693;28;20080;-79
2022/08/29 01:27:46;;;;;;;4.72;2.22;;;;;;;16.68;100.00;102161.56;5003607;28;20049;-79
2022/08/29 01:30:14;;;;;;;7.78;2.83;;;;;;;16.68;100.00;102158.88;4979317;28;20399;-79
2022/08/29 01:32:45;;;;;;;;;;;;;;;16.68;100.00;102164.22;4949889;28;20082;-77
2022/08/29 01:35:13;;;;;;;6.40;2.10;;;;;;;16.65;100.00;102158.88;4992809;28;19926;-78
2022/08/29 01:37:43;;;;;;;5.93;2.10;;;;;;;16.66;100.00;102160.66;4978541;28;20037;-78
2022/08/29 01:40:13;;;;;;;8.20;2.30;;;;;;;16.66;100.00;102166.00;4987686;28;20050;-79
2022/08/29 01:42:43;;;;;;;3.90;1.97;;;;;;;16.66;100.00;102163.34;4979079;28;20053;-78
2022/08/29 01:45:11;;;;;;;7.57;2.70;;;;;;;16.66;100.00;102160.66;4987607;28;20050;-77
2022/08/29 01:47:40;;;;;;;6.60;2.50;;;;;;;16.66;100.00;102171.31;4958937;28;20038;-78
2022/08/29 01:50:13;;;;;;;8.07;2.08;;;;;;;16.68;100.00;102177.53;4999876;28;20042;-79
2022/08/29 01:52:41;;;;;;;7.38;2.60;;;;;;;16.69;100.00;102176.66;4984417;28;20391;-79
2022/08/29 01:55:10;;;;;;;7.35;2.10;;;;;;;16.70;100.00;102180.19;4983937;28;20042;-78
2022/08/29 01:57:39;;;;;;;10.90;2.35;;;;;;;16.68;100.00;102169.53;4965344;28;20041;-79
2022/08/29 02:00:10;;;;;;;8.48;2.55;;;;;;;16.67;100.00;102175.75;4942066;28;20038;-77
2022/08/29 02:02:40;;;;;;;7.20;2.10;;;;;;;16.65;100.00;102169.53;4984800;28;20045;-78
2022/08/29 02:05:08;;;;;;;8.07;2.50;;;;;;;16.64;100.00;102167.78;4943494;28;20384;-79
2022/08/29 02:07:37;;;;;;;6.63;1.98;;;;;;;16.65;100.00;102169.53;4999515;28;20050;-80
2022/08/29 02:10:07;;;;;;;5.85;1.98;;;;;;;16.67;100.00;102173.09;5008325;28;20050;-78
2022/08/29 02:12:35;;;;;;;4.38;1.88;;;;;;;16.68;100.00;102172.19;4989152;28;20054;-78
2022/08/29 02:15:05;;;;;;;6.63;2.67;;;;;;;16.67;100.00;102172.19;4991909;28;20042;-79
2022/08/29 02:17:33;;;;;;;6.07;1.70;;;;;;;16.68;100.00;102174.84;4964803;28;20500;-78
2022/08/29 02:20:06;;;;;;;7.30;2.55;;;;;;;16.67;100.00;102167.78;4977931;28;20260;-78
2022/08/29 02:22:37;;;;;;;4.22;2.08;;;;;;;16.70;100.00;102166.88;5002660;28;20052;-78
2022/08/29 02:27:59;;;;;;;8.18;2.83;;;;;;;16.70;100.00;102161.56;4999512;28;20455;-78
2022/08/29 02:30:27;;;;;;;5.95;2.28;;;;;;;16.69;100.00;102160.69;4975161;28;20042;-79
2022/08/29 02:32:55;;;;;;;8.75;2.60;;;;;;;16.69;100.00;102163.34;4984044;28;20274;-79
2022/08/29 02:35:25;;;;;;;6.60;2.67;;;;;;;16.71;100.00;102163.31;4939389;28;20045;-79
2022/08/29 02:37:56;;;;;;;7.80;3.45;;;;;;;16.71;100.00;102168.63;4991718;28;20065;-79
2022/08/29 02:40:26;;;;;;;6.68;2.08;;;;;;;16.69;100.00;102168.66;4959454;28;20057;-80
2022/08/29 02:43:00;;;;;;;4.28;2.10;;;;;;;16.70;100.00;102164.22;4986433;28;20184;-79
2022/08/29 02:45:32;;;;;;;9.32;2.55;;;;;;;16.70;100.00;102161.56;4960605;28;20034;-79
2022/08/29 02:48:00;;;;;;;10.23;2.30;;;;;;;16.68;100.00;102158.00;4960537;28;20050;-79
2022/08/29 02:50:31;;;;;;;7.25;2.70;;;;;;;16.65;100.00;102153.56;4952829;28;20041;-78
2022/08/29 02:53:00;;;;;;;6.43;2.97;;;;;;;16.65;100.00;102153.56;4964728;28;20613;-78
2022/08/29 02:55:29;;;;;;;8.68;2.72;;;;;;;16.67;100.00;102167.78;5004306;28;20054;-78
2022/08/29 02:57:59;;;;;;;6.43;2.67;;;;;;;16.67;100.00;102161.53;4985599;28;20042;-78
2022/08/29 03:00:27;;;;;;;8.73;3.20;;;;;;;16.69;100.00;102168.66;4981993;28;20045;-79
2022/08/29 03:02:58;;;;;;;5.47;2.85;;;;;;;16.70;100.00;102172.19;4983443;28;21856;-79
2022/08/29 03:05:28;;;;;;;;;;;;;;;16.70;100.00;102165.09;4966796;28;20047;-79
2022/08/29 03:07:57;;;;;;;6.27;2.80;;;;;;;16.70;100.00;102162.44;4987596;28;20127;-79
2022/08/29 03:10:26;;;;;;;5.63;2.95;;;;;;;16.72;100.00;102165.97;4962917;28;20042;-78
2022/08/29 03:12:55;;;;;;;7.57;2.55;;;;;;;16.73;100.00;102158.91;4970974;28;20168;-79
2022/08/29 03:15:24;;;;;;;8.85;2.95;;;;;;;16.73;100.00;102162.44;4974929;28;20375;-79
2022/08/29 03:17:53;;;;;;;7.53;2.40;;;;;;;16.73;100.00;102165.09;4944810;28;20263;-78
2022/08/29 03:20:23;;;;;;;6.88;3.00;;;;;;;16.74;100.00;102158.88;4969734;28;20054;-79
2022/08/29 03:22:53;;;;;;;9.45;2.60;;;;;;;16.75;100.00;102154.47;4928082;28;20355;-78
2022/08/29 03:25:23;;;;;;;7.03;2.73;;;;;;;16.75;100.00;102149.13;5005593;28;20061;-79
2022/08/29 03:27:51;;;;;;;11.88;2.80;;;;;;;16.73;100.00;102159.78;4974513;28;20963;-79
2022/08/29 03:30:21;;;;;;;6.45;2.40;;;;;;;16.74;100.00;102164.19;4949410;28;20538;-78
2022/08/29 03:32:52;;;;;;;5.63;2.60;;;;;;;16.75;100.00;102165.09;4940365;28;20046;-78
2022/08/29 03:35:21;;;;;;;3.67;2.38;;;;;;;16.76;100.00;102156.22;4969776;28;20050;-79
2022/08/29 03:37:54;;;;;;;8.55;2.40;;;;;;;16.76;100.00;102158.88;4947442;28;21042;-78
2022/08/29 03:40:24;;;;;;;5.15;2.40;;;;;;;16.76;100.00;102162.41;4962568;28;20053;-79
2022/08/29 03:42:54;;;;;;;7.07;3.22;;;;;;;16.75;100.00;102160.66;4967083;28;20269;-79
2022/08/29 03:45:24;;;;;;;4.50;2.35;;;;;;;16.74;100.00;102166.84;4988044;28;20054;-80
2022/08/29 03:47:52;;;;;;;8.93;2.70;;;;;;;16.73;100.00;102162.44;4959736;28;20045;-79
2022/08/29 03:50:24;;;;;;;7.50;2.67;;;;;;;16.73;100.00;102169.56;4964719;28;20392;-79
2022/08/29 03:52:52;;;;;;;6.85;2.80;;;;;;;16.72;100.00;102170.41;4920557;28;20565;-78
2022/08/29 03:55:21;;;;;;;6.63;2.80;;;;;;;16.72;100.00;102159.78;4977355;28;20053;-79
2022/08/29 03:57:50;;;;;;;8.00;2.92;;;;;;;16.72;100.00;102173.97;4968086;28;20047;-79
2022/08/29 04:00:18;;;;;;;8.45;2.60;;;;;;;16.72;100.00;102167.75;4959805;28;20046;-79
2022/08/29 04:02:48;;;;;;;6.28;2.90;;;;;;;16.71;100.00;102169.53;4952185;28;20050;-79
2022/08/29 04:05:16;;;;;;;6.78;2.88;;;;;;;16.72;100.00;102173.09;4974927;28;20042;-79
2022/08/29 04:07:46;;;;;;;7.78;2.67;;;;;;;16.74;100.00;102173.97;4965780;28;20050;-79
2022/08/29 04:10:23;;;;;;;6.80;2.83;;;;;;;16.73;100.00;102169.56;4954584;28;20144;-79
2022/08/29 04:12:52;;;;;;;9.15;3.25;;;;;;;16.72;100.00;102167.75;4984809;28;20030;-78
2022/08/29 04:15:25;;;;;;;9.38;2.40;;;;;;;16.72;100.00;102168.63;4989857;28;20064;-79
2022/08/29 04:17:56;;;;;;;14.35;3.45;;;;;;;16.72;100.00;102170.41;4969661;28;20046;-78
2022/08/29 04:20:36;;;;;;;7.95;2.78;;;;;;;16.73;100.00;102169.56;4976165;28;20050;-78
2022/08/29 04:23:05;;;;;;;5.57;2.45;;;;;;;16.73;100.00;102170.44;4952531;28;20041;-79
2022/08/29 04:25:36;;;;;;;10.10;3.00;;;;;;;16.75;100.00;102171.31;4969559;28;20050;-78
2022/08/29 04:28:08;;;;;;;9.32;3.13;;;;;;;16.76;100.00;102169.53;4993394;28;20054;-79
2022/08/29 04:30:39;;;;;;;10.23;2.80;;;;;;;16.76;100.00;102167.75;4954225;28;20030;-78
2022/08/29 04:33:09;;;;;;;8.73;3.22;;;;;;;16.77;100.00;102168.66;4986389;28;20507;-78
2022/08/29 04:35:50;;;;;;;7.45;2.70;;;;;;;16.77;100.00;102169.53;4983273;28;20050;-79
2022/08/29 04:38:20;;;;;;;6.57;3.05;;;;;;;16.77;100.00;102164.19;4945262;28;20459;-79
2022/08/29 04:40:48;;;;;;;8.25;2.42;;;;;;;16.78;100.00;102170.41;4949217;28;20046;-79
2022/08/29 04:43:17;;;;;;;5.60;2.58;;;;;;;16.79;100.00;102163.34;4984619;28;20429;-78
2022/08/29 04:45:53;;;;;;;12.32;2.90;;;;;;;16.80;100.00;102162.41;4955699;28;20047;-78
2022/08/29 04:48:22;;;;;;;7.47;2.50;;;;;;;16.80;100.00;102167.75;4959688;28;20254;-79
2022/08/29 04:50:58;;;;;;;10.57;2.95;;;;;;;16.79;100.00;102169.53;4974214;28;20076;-80
2022/08/29 04:53:27;;;;;;;5.63;2.47;;;;;;;16.80;100.00;102167.75;4979682;28;20506;-79
2022/08/29 04:56:10;;;;;;;8.00;2.95;;;;;;;16.79;100.00;102173.97;4947118;28;20524;-80
2022/08/29 04:58:41;;;;;;;8.77;2.55;;;;;;;16.80;100.00;102173.94;4991372;28;20065;-79
2022/08/29 05:01:13;;;;;;;11.13;3.85;;;;;;;16.80;100.00;102175.72;4970343;28;20053;-79
2022/08/29 05:03:42;;;;;;;7.53;2.85;;;;;;;16.81;100.00;102180.19;4971430;28;20046;-78
2022/08/29 05:06:13;;;;;;;9.00;2.70;;;;;;;16.82;100.00;102181.94;4948488;28;20157;-78
2022/08/29 05:08:42;;;;;;;5.95;2.70;;;;;;;16.83;100.00;102174.00;4944523;28;20403;-78
2022/08/29 05:11:15;;;;;;;12.13;3.35;;;;;;;16.87;100.00;102172.22;4926645;28;20046;-79
2022/08/29 05:13:53;;;;;;;9.20;2.97;;;;;;;16.89;100.00;102181.97;4984321;28;20061;-79
2022/08/29 05:16:22;;;;;;;8.95;3.75;;;;;;;16.92;100.00;102178.41;4966776;28;20053;-79
2022/08/29 05:18:51;;;;;;;10.65;3.20;;;;;;;16.93;100.00;102182.84;4964707;28;20042;-79
2022/08/29 05:21:30;;;;;;;12.25;3.15;;;;;;;16.95;100.00;102186.38;4984376;28;20430;-79
2022/08/29 05:24:05;;;;;;;13.25;3.60;;;;;;;16.98;100.00;102194.38;4956748;28;20042;-80
2022/08/29 05:26:38;;;;;;;7.32;3.47;;;;;;;17.02;100.00;102195.25;4941917;28;20022;-78
2022/08/29 05:29:08;;;;;;;11.43;3.22;;;;;;;17.04;100.00;102198.81;4982675;28;20048;-79
2022/08/29 05:31:37;;;;;;;;;;;;;;;17.07;100.00;102194.38;4954346;28;20407;-79
2022/08/29 05:34:08;;;;;;;8.85;3.03;;;;;;;17.10;100.00;102191.66;4946006;28;19921;-78
2022/08/29 05:36:56;;;;;;;15.00;3.90;;;;;;;17.13;100.00;102191.69;4974022;28;20047;-79
2022/08/29 05:39:25;;;;;;;10.80;3.38;;;;;;;17.15;100.00;102202.34;4973310;28;20050;-78
2022/08/29 05:41:54;;;;;;;10.40;3.20;;;;;;;17.20;100.00;102199.63;4919553;28;20051;-79
2022/08/29 05:44:23;;;;;;;10.73;3.50;;;;;;;17.23;100.00;102199.66;4967119;28;20063;-79
2022/08/29 05:46:52;;;;;;;8.98;3.67;;;;;;;17.26;100.00;102212.97;4957440;28;20043;-80
2022/08/29 05:49:20;;;;;;;9.98;3.22;;;;;;;17.30;100.00;102210.28;4927968;28;20172;-79
2022/08/29 05:51:52;;;;;;;9.65;3.35;;;;;;;17.33;100.00;102209.38;4954959;28;20039;-79
2022/08/29 05:54:22;;;;;;;12.10;3.17;;;;;;;17.36;100.00;102205.81;4951919;28;20287;-78
2022/08/29 05:56:51;;;;;;;9.77;3.00;;;;;;;17.38;100.00;102209.38;4939789;28;20042;-79
2022/08/29 05:59:20;;;;;;;10.07;2.80;;;;;;;17.39;100.00;102208.47;4901964;28;20593;-80
2022/08/29 06:01:49;;;;;;;7.22;2.90;;;;;;;17.41;100.00;102210.25;4937916;28;20049;-80
2022/08/29 06:04:23;;;;;;;10.25;3.35;;;;;;;17.44;100.00;102215.53;4965038;28;20259;-79
2022/08/29 06:06:51;;;;;;;7.55;3.58;;;;;;;17.46;100.00;102211.09;4928528;28;20053;-79
2022/08/29 06:09:19;;;;;;;16.33;4.03;;;;;;;17.49;100.00;102212.88;4942480;28;20436;-79
2022/08/29 06:11:50;;;;;;;13.32;3.50;;;;;;;17.51;100.00;102216.44;4962733;28;20489;-79
2022/08/29 06:14:19;;;;;;;10.23;3.35;;;;;;;17.53;100.00;102218.19;4925334;28;20031;-79
2022/08/29 06:16:48;;;;;;;11.27;3.97;;;;;;;17.54;100.00;102219.97;4956766;28;20115;-78
2022/08/29 06:19:20;;;;;;;6.63;3.42;;;;;;;17.57;100.00;102220.84;4935563;28;20285;-79
2022/08/29 06:21:49;;;;;;;16.58;5.10;;;;;;;17.59;100.00;102219.94;4944422;28;20047;-79
2022/08/29 06:24:17;;;;;;;10.07;3.47;;;;;;;17.61;100.00;102225.25;4947602;28;20070;-78
2022/08/29 06:26:46;;;;;;;17.40;4.63;;;;;;;17.62;100.00;102221.72;4962616;28;20400;-79
2022/08/29 06:29:15;;;;;;;8.05;3.40;;;;;;;17.65;100.00;102227.03;4900199;28;20528;-78
2022/08/29 06:31:43;;;;;;;8.63;2.95;;;;;;;17.66;100.00;102220.81;4971702;28;20049;-77
2022/08/29 06:34:12;;;;;;;12.55;3.30;;;;;;;17.70;100.00;102214.56;4955044;28;20050;-79
2022/08/29 06:36:41;;;;;;;10.32;3.20;;;;;;;17.74;100.00;102224.31;4927177;28;20396;-78
2022/08/29 06:39:10;;;;;;;11.48;4.03;;;;;;;17.76;100.00;102216.31;4956813;28;20057;-79
2022/08/29 06:41:40;;;;;;;7.88;3.08;;;;;;;17.79;100.00;102222.53;4972795;28;20045;-78
2022/08/29 06:44:09;;;;;;;12.70;4.47;;;;;;;17.82;100.00;102225.16;4956427;28;20504;-80
2022/08/29 06:46:45;;;;;;;17.75;4.07;;;;;;;17.85;100.00;102229.63;4977810;28;20280;-78
2022/08/29 06:49:15;;;;;;;12.70;4.10;;;;;;;17.86;100.00;102229.63;5008171;28;20054;-80
2022/08/29 06:51:47;;;;;;;7.80;4.15;;;;;;;17.88;100.00;102234.94;4981617;28;20045;-79
2022/08/29 06:54:18;;;;;;;10.05;3.30;;;;;;;17.91;100.00;102234.94;4991698;28;20247;-79
2022/08/29 06:56:48;;;;;;;15.30;4.30;;;;;;;17.94;100.00;102226.94;4987226;28;20422;-79
2022/08/29 06:59:18;;;;;;;12.82;3.47;;;;;;;17.98;100.00;102227.81;4945027;28;20053;-79
2022/08/29 07:01:47;;;;;;;16.48;4.63;;;;;;;18.02;100.00;102221.53;5019305;28;20053;-80
2022/08/29 07:04:15;;;;;;;13.38;4.45;;;;;;;18.06;100.00;102220.63;4993035;28;20061;-80
2022/08/29 07:06:48;;;;;;;17.20;4.35;;;;;;;18.12;100.00;102220.59;4967419;28;20058;-81
2022/08/29 07:09:20;;;;;;;9.93;3.70;;;;;;;18.20;100.00;102217.88;4962500;28;20557;-81
2022/08/29 07:11:48;;;;;;;13.02;3.75;;;;;;;18.27;100.00;102217.81;4984433;28;20053;-81
2022/08/29 07:14:17;;;;;;;9.90;3.60;;;;;;;18.37;100.00;102215.06;4931621;28;20748;-81
2022/08/29 07:16:45;;;;;;;11.38;3.97;;;;;;;18.47;100.00;102220.34;5003510;28;20049;-80
2022/08/29 07:19:16;;;;;;;11.55;4.00;;;;;;;18.59;100.00;102222.00;4985110;28;20050;-81
2022/08/29 07:21:45;;;;;;;12.88;3.85;;;;;;;18.70;100.00;102217.47;5008455;28;20057;-81
2022/08/29 07:24:13;;;;;;;10.55;3.30;;;;;;;18.79;100.00;102223.63;4979274;28;20038;-80
2022/08/29 07:26:43;;;;;;;9.18;3.28;;;;;;;18.87;100.00;102229.81;4986818;28;20053;-81
2022/08/29 07:29:15;;;;;;;13.18;4.43;;;;;;;18.88;100.00;102221.81;4945704;28;20057;-80
2022/08/29 07:31:46;;;;;;;9.93;3.30;;;;;;;18.91;100.00;102223.56;4994520;28;20054;-79
2022/08/29 07:34:15;;;;;;;12.88;4.20;;;;;;;18.98;100.00;102225.28;5000471;28;20076;-82
2022/08/29 07:36:48;;;;;;;11.93;4.07;;;;;;;19.06;100.00;102219.84;4988728;28;20065;-81
2022/08/29 07:39:21;;;;;;;12.60;3.72;;;;;;;19.16;100.00;102221.50;4993367;28;20065;-80
2022/08/29 07:41:50;;;;;;;;;;;;;;;19.28;100.00;102223.16;4971629;28;20487;-80
2022/08/29 07:44:18;;;;;;;14.13;3.78;;;;;;;19.34;100.00;102228.44;4965917;28;20060;-79
2022/08/29 07:46:47;;;;;;;11.80;3.35;;;;;;;19.34;100.00;102222.19;4952816;28;20038;-80
2022/08/29 07:49:15;;;;;;;13.77;3.88;;;;;;;19.34;100.00;102230.22;4966692;28;20284;-80
2022/08/29 07:51:46;;;;;;;6.82;2.83;;;;;;;19.34;100.00;102232.88;4983963;28;20043;-80
2022/08/29 07:54:17;;;;;;;9.10;3.50;;;;;;;19.35;100.00;102234.66;4976838;28;20035;-81
2022/08/29 07:56:48;;;;;;;10.38;2.80;;;;;;;19.33;100.00;102231.13;4976683;28;20049;-81
2022/08/29 07:59:18;;;;;;;10.05;3.10;;;;;;;19.33;100.00;102231.13;4980648;28;20323;-81
2022/08/29 08:01:47;;;;;;;9.32;3.25;;;;;;;19.37;100.00;102239.09;4942869;28;20038;-82
2022/08/29 08:04:16;;;;;;;8.77;3.67;;;;;;;19.37;100.00;102233.75;4979407;28;20049;-83
2022/08/29 08:06:46;;;;;;;10.77;2.95;;;;;;;19.36;100.00;102242.69;4971522;28;20042;-81
2022/08/29 08:09:15;;;;;;;11.75;2.90;;;;;;;19.40;100.00;102247.06;4969210;28;20047;-81
2022/08/29 08:11:43;;;;;;;9.65;3.50;;;;;;;19.41;100.00;102251.53;4989428;28;20038;-81
2022/08/29 08:14:12;;;;;;;14.95;3.50;;;;;;;19.45;100.00;102253.25;4977632;28;20045;-81
2022/08/29 08:16:41;;;;;;;9.63;3.08;;;;;;;19.52;100.00;102251.38;4967109;28;20041;-81
2022/08/29 08:19:13;;;;;;;7.88;3.15;;;;;;;19.58;100.00;102255.78;5002112;28;20052;-81
2022/08/29 08:21:43;;;;;;;10.57;3.55;;;;;;;19.58;100.00;102248.63;4967029;28;20050;-82
2022/08/29 08:24:18;;;;;;;10.98;3.10;;;;;;;19.57;100.00;102256.69;4971048;28;20044;-81
2022/08/29 08:26:48;;;;;;;17.10;4.13;;;;;;;19.55;100.00;102255.84;4952846;28;20408;-82
2022/08/29 08:29:16;;;;;;;15.68;3.22;;;;;;;19.58;100.00;102253.09;4977132;28;20046;-81
2022/08/29 08:31:48;;;;;;;14.95;3.25;;;;;;;19.67;100.00;102247.66;4970839;28;20373;-81
2022/08/29 08:34:18;;;;;;;10.63;3.10;;;;;;;19.69;100.00;102253.84;4978172;28;20030;-81
2022/08/29 08:36:49;;;;;;;9.65;4.05;;;;;;;19.73;100.00;102257.41;5006796;28;20049;-82
2022/08/29 08:39:18;;;;;;;14.90;3.28;;;;;;;19.74;100.00;102254.72;4959017;28;20050;-81
2022/08/29 08:42:04;;;;;;;8.43;2.95;;;;;;;19.80;100.00;102253.75;4966653;28;20386;-81
2022/08/29 08:45:14;;;;;;;9.60;3.60;;;;;;;19.82;100.00;102257.31;4954276;28;20038;-83
2022/08/29 08:48:01;;;;;;;10.45;2.75;;;;;;;19.88;100.00;102269.72;4955266;28;20062;-81
2022/08/29 08:50:43;;;;;;;9.88;3.03;;;;;;;19.95;100.00;102263.38;4979135;28;20041;-82
2022/08/29 08:53:15;;;;;;;6.43;2.55;;;;;;;19.96;100.00;102266.03;4959852;28;20038;-81
2022/08/29 08:55:53;;;;;;;11.75;3.53;;;;;;;19.95;100.00;102264.25;4994371;28;20035;-82
2022/08/29 08:58:34;;;;;;;8.27;3.05;;;;;;;19.90;100.00;102270.56;4986879;28;20041;-81
2022/08/29 09:01:38;;;;;;;14.57;3.53;;;;;;;19.83;100.00;102262.63;4991205;28;20069;-81
2022/08/29 09:04:25;;;;;;;13.57;3.30;;;;;;;19.81;100.00;102274.25;4926247;28;22052;-82
2022/08/29 09:07:00;;;;;;;11.73;4.35;;;;;;;19.76;100.00;102266.28;4989070;28;20054;-81
2022/08/29 09:09:44;;;;;;;13.38;3.38;;;;;;;19.74;100.00;102268.09;4990188;28;20053;-81
2022/08/29 09:12:26;;;;;;;12.18;2.92;;;;;;;19.72;100.00;102267.25;4995605;28;20097;-81
2022/08/29 09:15:07;;;;;;;7.75;2.78;;;;;;;19.73;100.00;102274.34;5005450;28;20046;-81
2022/08/29 09:17:52;;;;;;;10.05;3.15;;;;;;;19.75;100.00;102269.84;4994820;28;20041;-82
2022/08/29 09:20:27;;;;;;;10.85;3.25;;;;;;;19.76;100.00;102263.63;4958498;28;20034;-81
2022/08/29 09:23:21;;;;;;;11.00;3.20;;;;;;;19.80;100.00;102265.34;4989216;28;20046;-81
2022/08/29 09:25:50;;;;;;;15.38;3.00;;;;;;;19.83;100.00;102270.66;4980848;28;20057;-81
2022/08/29 09:28:19;;;;;;;14.10;2.90;;;;;;;19.89;100.00;102266.16;4948991;28;20050;-81
2022/08/29 09:31:22;;;;;;;7.47;2.85;;;;;;;19.97;100.00;102273.16;4989581;28;20027;-82
2022/08/29 09:33:56;;;;;;;9.90;2.90;;;;;;;20.01;100.00;102274.88;4979235;28;20144;-82
2022/08/29 09:36:40;;;;;;;10.98;3.38;;;;;;;20.03;100.00;102277.53;4957490;28;20043;-81
2022/08/29 09:39:28;;;;;;;10.60;3.28;;;;;;;20.05;100.00;102273.91;5011570;28;20072;-82
2022/08/29 09:42:10;;;;;;;12.65;2.92;;;;;;;20.05;100.00;102276.59;4996910;28;20258;-80
2022/08/29 09:44:49;;;;;;;8.45;2.97;;;;;;;20.04;100.00;102271.28;4991422;28;20057;-82
2022/08/29 09:47:23;;;;;;;6.65;3.00;;;;;;;20.08;100.00;102280.16;5004404;28;20054;-82
2022/08/29 09:50:23;;;;;;;5.75;2.60;;;;;;;20.11;100.00;102262.25;4932960;28;20046;-80
2022/08/29 09:52:58;;;;;;;8.27;2.65;;;;;;;20.15;100.00;102264.00;4986300;28;20243;-82
2022/08/29 09:55:34;;;;;;;8.60;2.72;;;;;;;20.24;100.00;102261.19;4990699;28;20046;-82
2022/08/29 09:58:09;;;;;;;9.65;2.55;;;;;;;20.32;100.00;102268.19;4979423;28;20120;-81
2022/08/29 10:00:42;;;;;;;8.27;2.65;;;;;;;20.32;100.00;102269.09;4964336;28;20059;-82
2022/08/29 10:03:21;;;;;;;9.63;2.47;;;;;;;20.29;100.00;102268.25;4989149;28;20083;-81
2022/08/29 10:06:11;;;;;;;10.93;3.13;;;;;;;20.30;100.00;102256.63;4964761;28;20042;-82
2022/08/29 10:08:53;;;;;;;15.40;3.60;;;;;;;20.29;100.00;102266.47;5004892;28;20041;-81
2022/08/29 10:11:48;;;;;;;6.97;2.20;;;;;;;20.39;100.00;102270.75;5003269;28;20057;-81
2022/08/29 10:14:45;;;;;;;7.88;2.75;;;;;;;20.47;100.00;102267.09;4976864;28;20048;-80
2022/08/29 10:20:12;;;;;;;8.68;2.60;;;;;;;20.62;100.00;102283.84;4982420;28;20487;-82
2022/08/29 10:23:02;;;;;;;8.88;2.60;;;;;;;20.65;100.00;102277.53;5003813;28;20050;-81
2022/08/29 10:25:40;;;;;;;10.30;3.05;;;;;;;20.59;100.00;102273.13;4978416;28;20418;-81
2022/08/29 10:28:19;;;;;;;6.82;2.38;;;;;;;20.55;100.00;102276.78;4960010;28;20054;-81
2022/08/29 10:31:11;;;;;;;7.50;2.80;;;;;;;20.45;100.00;102276.03;4996501;28;20054;-82
2022/08/29 10:33:43;;;;;;;9.40;2.83;;;;;;;20.43;100.00;102274.28;4984854;28;20041;-82
2022/08/29 10:36:16;;;;;;;9.27;2.83;;;;;;;20.44;100.00;102282.28;4967889;28;20054;-81
2022/08/29 10:39:00;;;;;;;9.38;2.50;;;;;;;20.43;100.00;102279.63;5002093;28;20073;-83
2022/08/29 10:41:46;;;;;;;6.15;2.42;;;;;;;20.40;100.00;102282.38;5009351;28;20510;-81
2022/08/29 10:44:54;;;;;;;8.30;2.53;;;;;;;20.35;100.00;102285.09;4977763;28;20278;-82
2022/08/29 10:47:31;;;;;;;9.43;2.40;;;;;;;20.37;100.00;102288.63;5013655;28;20069;-81
2022/08/29 10:50:35;;;;;;;7.43;2.25;;;;;;;20.35;100.00;102289.56;4992998;28;20042;-81
2022/08/29 10:53:37;;;;;;;5.55;2.28;;;;;;;20.35;100.00;102292.25;4954264;28;20726;-81
2022/08/29 10:56:13;;;;;;;7.25;3.10;;;;;;;20.33;100.00;102291.41;4989593;28;20034;-81
2022/08/29 10:59:04;;;;;;;8.88;2.40;;;;;;;20.27;100.00;102284.34;4992742;28;20037;-81
2022/08/29 11:01:51;;;;;;;5.68;2.40;;;;;;;20.28;100.00;102285.22;5003782;28;20042;-82
2022/08/29 11:04:26;;;;;;;7.13;2.65;;;;;;;20.27;100.00;102284.34;4990012;28;20046;-82
2022/08/29 11:07:15;;;;;;;5.18;2.17;;;;;;;20.29;100.00;102279.84;4983674;28;20034;-81
2022/08/29 11:09:51;;;;;;;10.15;2.55;;;;;;;20.32;100.00;102284.25;4994309;28;20052;-81
2022/08/29 11:12:40;;;;;;;8.57;2.20;;;;;;;20.41;100.00;102278.78;4957000;28;20039;-81
2022/08/29 11:15:34;;;;;;;8.95;2.42;;;;;;;20.53;100.00;102283.03;4999881;28;20045;-81
2022/08/29 11:18:20;;;;;;;8.57;2.00;;;;;;;20.63;100.00;102290.06;5005918;28;20050;-80
2022/08/29 11:20:56;;;;;;;3.45;2.03;;;;;;;20.70;100.00;102277.44;4994294;28;20402;-79
2022/08/29 11:23:46;;;;;;;8.02;2.40;;;;;;;20.78;100.00;102279.09;4958714;28;20164;-80
2022/08/29 11:26:25;;;;;;;6.55;2.38;;;;;;;20.82;100.00;102282.63;4993866;28;20041;-80
2022/08/29 11:28:56;;;;;;;6.07;2.10;;;;;;;20.86;100.00;102272.75;4993622;28;20064;-81
2022/08/29 11:31:43;;;;;;;;;;;;;;;20.91;100.00;102274.44;5006175;28;20057;-80
2022/08/29 11:34:30;;;;;;;5.35;1.88;;;;;;;20.95;100.00;102278.81;4999467;28;19921;-80
2022/08/29 11:37:30;;;;;;;4.75;1.90;;;;;;;20.94;100.00;102287.75;4966301;28;20077;-80
2022/08/29 11:40:19;;;;;;;5.85;2.75;;;;;;;20.94;100.00;102284.19;4981162;28;20267;-80
2022/08/29 11:43:14;;;;;;;9.32;2.30;;;;;;;20.99;100.00;102264.44;4997037;28;20046;-80
2022/08/29 11:45:52;;;;;;;10.65;2.20;;;;;;;21.08;100.00;102273.22;4977378;28;20041;-80
2022/08/29 11:48:20;;;;;;;5.50;1.70;;;;;;;21.16;100.00;102276.66;4983749;28;20042;-82
2022/08/29 11:50:49;;;;;;;6.35;1.90;;;;;;;21.21;100.00;102273.00;4997274;28;20043;-80
2022/08/29 11:53:19;;;;;;;7.43;2.03;;;;;;;21.25;100.00;102279.19;4965962;28;20172;-81
2022/08/29 11:56:12;;;;;;;7.88;2.00;;;;;;;21.31;100.00;102276.38;5014233;28;20338;-82